Date,TemperatureHighF,TemperatureAvgF,TemperatureLowF,DewpointHighF,DewpointAvgF,DewpointLowF,HumidityHigh,HumidityAvg,HumidityLow,PressureMaxIn,PressureMinIn,WindSpeedMaxMPH,WindSpeedAvgMPH,GustSpeedMaxMPH,PrecipitationSumIn
2013-4-1,68,46,27,36,28,-42,87,56,24,29.92,29.77,5,1,0,0.00
2013-4-2,59,43,32,41,32,25,89,66,37,29.94,29.84,3,0,0,0.00
2013-4-3,54,40,28,33,27,21,98,64,32,30.04,29.88,8,1,0,0.00
2013-4-4,55,40,30,42,32,19,98,73,44,29.88,29.42,6,1,0,0.37
2013-4-5,52,42,34,43,40,33,98,91,61,29.56,29.39,4,1,0,0.26
2013-4-6,54,41,34,40,35,30,98,83,41,29.63,29.42,5,2,0,0.19
2013-4-7,50,37,32,37,33,29,98,87,53,29.68,29.51,5,1,0,0.24
2013-4-8,45,34,27,29,24,22,88,68,45,30.05,29.69,5,2,0,0.00
2013-4-9,46,37,23,38,30,19,88,76,55,30.06,29.79,4,2,0,0.01
2013-4-10,48,41,36,39,35,32,98,80,62,29.81,29.58,6,2,0,0.26
2013-4-11,45,35,28,35,25,17,98,69,38,30.05,29.81,6,1,0,0.17
2013-4-12,43,36,28,32,26,20,76,68,58,29.93,29.28,6,2,0,0.00
2013-4-13,45,36,28,26,22,17,85,61,35,29.73,29.29,8,2,0,0.00
2013-4-14,46,36,28,34,28,21,89,74,44,29.82,29.73,5,1,0,0.04
2013-4-15,46,36,27,29,24,20,98,66,38,30.08,29.83,5,1,0,0.00
2013-4-16,52,35,21,24,19,13,86,58,26,30.24,30.08,6,1,0,0.00
2013-4-17,55,41,25,31,24,18,79,55,31,30.18,30.04,4,1,0,0.00
2013-4-18,55,44,36,40,33,28,90,68,45,30.10,29.78,5,1,0,0.08
2013-4-19,55,44,37,44,37,33,88,77,51,29.81,29.74,4,1,0,0.04
2013-4-20,45,38,28,33,19,10,75,49,28,30.07,29.82,9,2,0,0.00
2013-4-21,46,34,23,16,13,2,66,46,17,30.26,30.07,7,2,0,0.00
2013-4-22,55,39,19,21,12,4,77,39,12,30.38,30.20,6,1,0,0.02
2013-4-23,54,40,32,37,30,21,98,67,41,30.26,30.16,8,2,0,0.07
2013-4-24,63,44,27,32,27,15,90,58,20,30.21,29.79,5,1,0,0.00
2013-4-25,66,49,32,43,36,27,86,62,37,29.84,29.78,5,1,0,0.00
2013-4-26,63,51,43,42,35,28,78,55,33,29.88,29.80,7,1,0,0.00
2013-4-27,64,50,41,35,29,21,67,46,20,29.82,29.63,9,2,0,0.00
2013-4-28,55,43,30,33,25,21,81,53,29,29.83,29.51,10,2,0,0.01
2013-4-29,45,33,28,31,25,20,90,72,48,29.85,29.51,8,2,0,0.02
2013-4-30,48,35,23,25,20,12,86,58,25,30.15,29.86,6,1,0,0.00